CEB798 RPLL-RPMD
Flight info
| Callsign | CEB798 |
|---|---|
| Flight time | 1h 24m |
| Altitude | 37000 |
| Route | IPATA2R IPATA B462 MASBA W9A BN W9 RIMAR RIMAR2P |
| Aircraft | A20N/M-SDE2E3FGHIRWXY/LB1 |
Departure
| Time | 2026-05-07 17:31 |
|---|---|
| Airport | Ninoy Aquino International Airport (RPLL) |
Arrival
| Time | 2026-05-07 18:56 |
|---|---|
| Airport | Francisco Bangoy International Airport (RPMD) |
| Time | Latitude | Longitude | Altitude | Speed | Heading |
|---|---|---|---|---|---|
| 2026-05-07 17:14 | 14.50371 | 121.00475 | 40 ft | 0 kts | 308° |
| 2026-05-07 17:21 | 14.50369 | 121.00478 | 40 ft | 1 kts | 308° |
| 2026-05-07 17:22 | 14.50364 | 121.00484 | 40 ft | 1 kts | 305° |
| 2026-05-07 17:22 | 14.50360 | 121.00491 | 40 ft | 1 kts | 303° |
| 2026-05-07 17:22 | 14.50356 | 121.00497 | 39 ft | 1 kts | 305° |
| 2026-05-07 17:22 | 14.50351 | 121.00504 | 37 ft | 1 kts | 307° |
| 2026-05-07 17:23 | 14.50341 | 121.00518 | 39 ft | 4 kts | 309° |
| 2026-05-07 17:23 | 14.50330 | 121.00541 | 40 ft | 4 kts | 262° |
| 2026-05-07 17:23 | 14.50332 | 121.00551 | 40 ft | 0 kts | 242° |
| 2026-05-07 17:26 | 14.50327 | 121.00544 | 40 ft | 3 kts | 234° |
| 2026-05-07 17:26 | 14.50306 | 121.00514 | 40 ft | 7 kts | 234° |
| 2026-05-07 17:26 | 14.50273 | 121.00460 | 39 ft | 11 kts | 239° |
| 2026-05-07 17:27 | 14.50228 | 121.00380 | 38 ft | 15 kts | 239° |
| 2026-05-07 17:27 | 14.50139 | 121.00336 | 38 ft | 16 kts | 197° |
| 2026-05-07 17:27 | 14.50067 | 121.00243 | 37 ft | 18 kts | 239° |
| 2026-05-07 17:27 | 14.49999 | 121.00121 | 36 ft | 21 kts | 242° |
| 2026-05-07 17:28 | 14.49940 | 121.00013 | 35 ft | 14 kts | 240° |
| 2026-05-07 17:28 | 14.49928 | 120.99992 | 35 ft | 3 kts | 237° |
| 2026-05-07 17:28 | 14.49902 | 120.99971 | 35 ft | 6 kts | 201° |
| 2026-05-07 17:28 | 14.49896 | 120.99970 | 35 ft | 0 kts | 193° |
| 2026-05-07 17:29 | 14.49895 | 120.99969 | 35 ft | 1 kts | 193° |
| 2026-05-07 17:29 | 14.49876 | 120.99972 | 35 ft | 4 kts | 167° |
| 2026-05-07 17:29 | 14.49839 | 120.99989 | 35 ft | 8 kts | 150° |
| 2026-05-07 17:29 | 14.49800 | 121.00033 | 33 ft | 8 kts | 99° |
| 2026-05-07 17:30 | 14.49805 | 121.00046 | 35 ft | 1 kts | 63° |
| 2026-05-07 17:30 | 14.49809 | 121.00054 | 35 ft | 0 kts | 63° |
| 2026-05-07 17:30 | 14.49811 | 121.00058 | 35 ft | 5 kts | 63° |
| 2026-05-07 17:31 | 14.49962 | 121.00335 | 35 ft | 82 kts | 60° |
| 2026-05-07 17:31 | 14.50353 | 121.01039 | 45 ft | 141 kts | 59° |
| 2026-05-07 17:31 | 14.50905 | 121.02011 | 402 ft | 159 kts | 60° |
| 2026-05-07 17:31 | 14.51471 | 121.02984 | 1073 ft | 160 kts | 60° |
| 2026-05-07 17:32 | 14.52024 | 121.03985 | 1772 ft | 162 kts | 61° |
| 2026-05-07 17:32 | 14.52601 | 121.05052 | 2273 ft | 178 kts | 60° |
| 2026-05-07 17:32 | 14.53235 | 121.06217 | 2741 ft | 194 kts | 60° |
| 2026-05-07 17:32 | 14.53690 | 121.07045 | 3010 ft | 208 kts | 60° |
| 2026-05-07 17:33 | 14.54710 | 121.08890 | 3688 ft | 236 kts | 61° |
| 2026-05-07 17:33 | 14.55563 | 121.10427 | 4275 ft | 255 kts | 62° |
| 2026-05-07 17:33 | 14.56455 | 121.12040 | 5126 ft | 260 kts | 63° |
| 2026-05-07 17:33 | 14.57124 | 121.13776 | 5940 ft | 266 kts | 80° |
| 2026-05-07 17:34 | 14.57048 | 121.15693 | 6731 ft | 271 kts | 107° |
| 2026-05-07 17:34 | 14.56106 | 121.17374 | 7615 ft | 274 kts | 131° |
| 2026-05-07 17:34 | 14.54709 | 121.18709 | 8452 ft | 279 kts | 138° |
| 2026-05-07 17:34 | 14.53184 | 121.19978 | 9318 ft | 283 kts | 139° |
| 2026-05-07 17:35 | 14.51643 | 121.21271 | 10139 ft | 286 kts | 138° |
| 2026-05-07 17:35 | 14.50093 | 121.22626 | 10513 ft | 307 kts | 137° |
| 2026-05-07 17:35 | 14.48421 | 121.24140 | 10725 ft | 330 kts | 137° |
| 2026-05-07 17:35 | 14.46664 | 121.25763 | 11143 ft | 343 kts | 137° |
| 2026-05-07 17:36 | 14.44879 | 121.27420 | 11867 ft | 346 kts | 137° |
| 2026-05-07 17:36 | 14.43074 | 121.29097 | 12594 ft | 350 kts | 137° |
| 2026-05-07 17:36 | 14.41273 | 121.30769 | 13245 ft | 355 kts | 137° |
| 2026-05-07 17:36 | 14.39423 | 121.32486 | 13949 ft | 357 kts | 137° |
| 2026-05-07 17:37 | 14.37559 | 121.34217 | 14495 ft | 363 kts | 137° |
| 2026-05-07 17:37 | 14.35674 | 121.35963 | 15117 ft | 366 kts | 137° |
| 2026-05-07 17:37 | 14.33788 | 121.37714 | 15655 ft | 371 kts | 137° |
| 2026-05-07 17:37 | 14.31855 | 121.39505 | 16257 ft | 374 kts | 137° |
| 2026-05-07 17:38 | 14.29912 | 121.41306 | 16807 ft | 378 kts | 137° |
| 2026-05-07 17:38 | 14.27940 | 121.43132 | 17366 ft | 381 kts | 137° |
| 2026-05-07 17:38 | 14.25960 | 121.44966 | 17899 ft | 385 kts | 137° |
| 2026-05-07 17:38 | 14.23982 | 121.46796 | 18450 ft | 386 kts | 137° |
| 2026-05-07 17:39 | 14.21971 | 121.48658 | 18877 ft | 391 kts | 137° |
| 2026-05-07 17:39 | 14.19928 | 121.50548 | 19407 ft | 393 kts | 137° |
| 2026-05-07 17:39 | 14.17879 | 121.52445 | 19823 ft | 397 kts | 137° |
| 2026-05-07 17:39 | 14.15846 | 121.54325 | 20377 ft | 398 kts | 137° |
| 2026-05-07 17:40 | 14.13766 | 121.56250 | 20825 ft | 401 kts | 137° |
| 2026-05-07 17:40 | 14.11683 | 121.58176 | 21337 ft | 404 kts | 137° |
| 2026-05-07 17:40 | 14.10293 | 121.59460 | 21633 ft | 406 kts | 137° |
| 2026-05-07 17:40 | 14.08165 | 121.61426 | 22083 ft | 409 kts | 137° |
| 2026-05-07 17:41 | 14.05327 | 121.64048 | 22655 ft | 415 kts | 137° |
| 2026-05-07 17:41 | 14.03898 | 121.65366 | 23030 ft | 414 kts | 137° |
| 2026-05-07 17:41 | 14.01737 | 121.67361 | 23463 ft | 418 kts | 137° |
| 2026-05-07 17:41 | 13.99565 | 121.69365 | 23874 ft | 420 kts | 137° |
| 2026-05-07 17:42 | 13.97397 | 121.71366 | 24196 ft | 424 kts | 137° |
| 2026-05-07 17:42 | 13.95186 | 121.73406 | 24598 ft | 427 kts | 137° |
| 2026-05-07 17:42 | 13.92958 | 121.75462 | 24968 ft | 429 kts | 137° |
| 2026-05-07 17:42 | 13.90753 | 121.77495 | 25341 ft | 431 kts | 138° |
| 2026-05-07 17:43 | 13.88501 | 121.79572 | 25689 ft | 434 kts | 138° |
| 2026-05-07 17:43 | 13.86302 | 121.81727 | 26064 ft | 436 kts | 133° |
| 2026-05-07 17:43 | 13.84311 | 121.84107 | 26374 ft | 440 kts | 130° |
| 2026-05-07 17:43 | 13.82345 | 121.86533 | 26697 ft | 443 kts | 130° |
| 2026-05-07 17:44 | 13.80381 | 121.88949 | 27046 ft | 445 kts | 130° |
| 2026-05-07 17:44 | 13.78379 | 121.91407 | 27373 ft | 447 kts | 130° |
| 2026-05-07 17:44 | 13.76373 | 121.93866 | 27694 ft | 450 kts | 130° |
| 2026-05-07 17:44 | 13.74343 | 121.96352 | 28006 ft | 453 kts | 130° |
| 2026-05-07 17:45 | 13.72340 | 121.98805 | 28317 ft | 455 kts | 130° |
| 2026-05-07 17:45 | 13.70286 | 122.01319 | 28614 ft | 458 kts | 131° |
| 2026-05-07 17:45 | 13.68230 | 122.03836 | 28906 ft | 460 kts | 131° |
| 2026-05-07 17:45 | 13.66159 | 122.06370 | 29196 ft | 463 kts | 130° |
| 2026-05-07 17:46 | 13.64087 | 122.08904 | 29571 ft | 463 kts | 130° |
| 2026-05-07 17:46 | 13.62033 | 122.11415 | 29887 ft | 465 kts | 131° |
| 2026-05-07 17:46 | 13.59937 | 122.13978 | 30130 ft | 468 kts | 131° |
| 2026-05-07 17:46 | 13.57830 | 122.16552 | 30398 ft | 469 kts | 131° |
| 2026-05-07 17:47 | 13.55725 | 122.19124 | 30679 ft | 471 kts | 131° |
| 2026-05-07 17:47 | 13.53627 | 122.21686 | 30938 ft | 473 kts | 131° |
| 2026-05-07 17:47 | 13.51505 | 122.24278 | 31268 ft | 473 kts | 131° |
| 2026-05-07 17:47 | 13.49385 | 122.26866 | 31630 ft | 472 kts | 131° |
| 2026-05-07 17:48 | 13.47267 | 122.29450 | 31989 ft | 471 kts | 131° |
| 2026-05-07 17:48 | 13.45175 | 122.32002 | 32343 ft | 470 kts | 131° |
| 2026-05-07 17:48 | 13.43063 | 122.34578 | 32687 ft | 470 kts | 131° |
| 2026-05-07 17:48 | 13.40954 | 122.37148 | 33012 ft | 469 kts | 132° |
| 2026-05-07 17:49 | 13.38873 | 122.39684 | 33332 ft | 468 kts | 132° |
| 2026-05-07 17:49 | 13.36769 | 122.42249 | 33643 ft | 468 kts | 132° |
| 2026-05-07 17:49 | 13.34674 | 122.44800 | 33933 ft | 467 kts | 132° |
| 2026-05-07 17:49 | 13.32572 | 122.47360 | 34180 ft | 467 kts | 132° |
| 2026-05-07 17:50 | 13.30473 | 122.49915 | 34408 ft | 467 kts | 132° |
| 2026-05-07 17:50 | 13.28375 | 122.52468 | 34629 ft | 467 kts | 132° |
| 2026-05-07 17:50 | 13.26295 | 122.54998 | 34869 ft | 467 kts | 132° |
| 2026-05-07 17:50 | 13.24195 | 122.57552 | 35094 ft | 467 kts | 132° |
| 2026-05-07 17:51 | 13.22093 | 122.60108 | 35312 ft | 467 kts | 132° |
| 2026-05-07 17:51 | 13.19996 | 122.62657 | 35517 ft | 468 kts | 132° |
| 2026-05-07 17:51 | 13.17917 | 122.65183 | 35717 ft | 468 kts | 132° |
| 2026-05-07 17:51 | 13.15807 | 122.67745 | 35935 ft | 468 kts | 132° |
| 2026-05-07 17:52 | 13.13699 | 122.70306 | 36150 ft | 468 kts | 132° |
| 2026-05-07 17:52 | 13.11598 | 122.72857 | 36357 ft | 468 kts | 132° |
| 2026-05-07 17:52 | 13.09514 | 122.75386 | 36557 ft | 469 kts | 132° |
| 2026-05-07 17:52 | 13.07397 | 122.77955 | 36782 ft | 469 kts | 132° |
| 2026-05-07 17:53 | 13.03176 | 122.83074 | 36866 ft | 468 kts | 132° |
| 2026-05-07 17:53 | 12.98999 | 122.88137 | 36862 ft | 467 kts | 132° |
| 2026-05-07 17:54 | 12.94798 | 122.93228 | 36856 ft | 466 kts | 132° |
| 2026-05-07 17:54 | 12.90603 | 122.98305 | 36859 ft | 466 kts | 132° |
| 2026-05-07 17:55 | 12.86423 | 123.03363 | 36861 ft | 466 kts | 132° |
| 2026-05-07 17:55 | 12.82239 | 123.08422 | 36860 ft | 466 kts | 133° |
| 2026-05-07 17:56 | 12.78036 | 123.13502 | 36861 ft | 466 kts | 133° |
| 2026-05-07 17:56 | 12.73830 | 123.18582 | 36869 ft | 466 kts | 132° |
| 2026-05-07 17:57 | 12.70360 | 123.22771 | 36872 ft | 466 kts | 132° |
| 2026-05-07 17:57 | 12.65452 | 123.28694 | 36872 ft | 465 kts | 132° |
| 2026-05-07 17:58 | 12.61281 | 123.33723 | 36868 ft | 465 kts | 132° |
| 2026-05-07 17:58 | 12.57083 | 123.38783 | 36866 ft | 465 kts | 133° |
| 2026-05-07 17:59 | 12.52922 | 123.43794 | 36863 ft | 462 kts | 132° |
| 2026-05-07 17:59 | 12.48752 | 123.48815 | 36863 ft | 462 kts | 132° |
| 2026-05-07 18:00 | 12.44603 | 123.53807 | 36865 ft | 462 kts | 132° |
| 2026-05-07 18:00 | 12.40421 | 123.58818 | 36863 ft | 461 kts | 134° |
| 2026-05-07 18:01 | 12.35739 | 123.63228 | 36861 ft | 458 kts | 145° |
| 2026-05-07 18:01 | 12.30344 | 123.66685 | 36865 ft | 456 kts | 154° |
| 2026-05-07 18:02 | 12.21969 | 123.71294 | 36869 ft | 456 kts | 154° |
| 2026-05-07 18:03 | 12.16384 | 123.74378 | 36867 ft | 457 kts | 154° |
| 2026-05-07 18:03 | 12.10766 | 123.77477 | 36866 ft | 457 kts | 154° |
| 2026-05-07 18:04 | 12.05189 | 123.80550 | 36868 ft | 457 kts | 154° |
| 2026-05-07 18:04 | 11.99577 | 123.83642 | 36868 ft | 457 kts | 154° |
| 2026-05-07 18:05 | 11.93989 | 123.86718 | 36867 ft | 457 kts | 154° |
| 2026-05-07 18:05 | 11.88383 | 123.89803 | 36866 ft | 457 kts | 154° |
| 2026-05-07 18:06 | 11.82798 | 123.92876 | 36855 ft | 457 kts | 154° |
| 2026-05-07 18:06 | 11.77187 | 123.95960 | 36851 ft | 457 kts | 154° |
| 2026-05-07 18:07 | 11.71570 | 123.99047 | 36847 ft | 457 kts | 154° |
| 2026-05-07 18:07 | 11.65985 | 124.02115 | 36848 ft | 458 kts | 154° |
| 2026-05-07 18:08 | 11.60354 | 124.05206 | 36848 ft | 458 kts | 154° |
| 2026-05-07 18:08 | 11.54740 | 124.08287 | 36851 ft | 458 kts | 154° |
| 2026-05-07 18:09 | 11.49126 | 124.11366 | 36847 ft | 459 kts | 154° |
| 2026-05-07 18:09 | 11.43512 | 124.14444 | 36850 ft | 459 kts | 154° |
| 2026-05-07 18:10 | 11.37856 | 124.17544 | 36854 ft | 460 kts | 154° |
| 2026-05-07 18:10 | 11.32241 | 124.20620 | 36858 ft | 461 kts | 154° |
| 2026-05-07 18:11 | 11.26575 | 124.23722 | 36870 ft | 461 kts | 154° |
| 2026-05-07 18:11 | 11.20951 | 124.26800 | 36866 ft | 461 kts | 154° |
| 2026-05-07 18:12 | 11.15277 | 124.29904 | 36863 ft | 461 kts | 154° |
| 2026-05-07 18:12 | 11.09648 | 124.32982 | 36865 ft | 461 kts | 154° |
| 2026-05-07 18:13 | 11.03983 | 124.36065 | 36865 ft | 461 kts | 154° |
| 2026-05-07 18:13 | 10.98286 | 124.39128 | 36865 ft | 461 kts | 154° |
| 2026-05-07 18:14 | 10.92625 | 124.42172 | 36864 ft | 461 kts | 154° |
| 2026-05-07 18:14 | 10.86934 | 124.45235 | 36860 ft | 461 kts | 154° |
| 2026-05-07 18:15 | 10.81280 | 124.48278 | 36861 ft | 461 kts | 154° |
| 2026-05-07 18:15 | 10.75813 | 124.51221 | 36861 ft | 461 kts | 154° |
| 2026-05-07 18:16 | 10.70139 | 124.54303 | 36863 ft | 460 kts | 153° |
| 2026-05-07 18:16 | 10.64513 | 124.57363 | 36857 ft | 460 kts | 154° |
| 2026-05-07 18:17 | 10.58856 | 124.60435 | 36855 ft | 460 kts | 154° |
| 2026-05-07 18:17 | 10.53238 | 124.63482 | 36861 ft | 459 kts | 153° |
| 2026-05-07 18:18 | 10.47579 | 124.66552 | 36860 ft | 459 kts | 153° |
| 2026-05-07 18:18 | 10.41960 | 124.69598 | 36859 ft | 459 kts | 153° |
| 2026-05-07 18:19 | 10.36319 | 124.72655 | 36856 ft | 459 kts | 153° |
| 2026-05-07 18:19 | 10.30715 | 124.75690 | 36852 ft | 459 kts | 153° |
| 2026-05-07 18:20 | 10.25076 | 124.78743 | 36848 ft | 459 kts | 153° |
| 2026-05-07 18:20 | 10.19427 | 124.81801 | 36842 ft | 459 kts | 153° |
| 2026-05-07 18:21 | 10.13773 | 124.84860 | 36840 ft | 460 kts | 153° |
| 2026-05-07 18:21 | 10.08131 | 124.87912 | 36843 ft | 460 kts | 153° |
| 2026-05-07 18:22 | 10.02494 | 124.90958 | 36845 ft | 461 kts | 153° |
| 2026-05-07 18:22 | 9.96811 | 124.94030 | 36847 ft | 461 kts | 153° |
| 2026-05-07 18:23 | 9.91180 | 124.97070 | 36849 ft | 461 kts | 153° |
| 2026-05-07 18:23 | 9.85510 | 125.00131 | 36843 ft | 459 kts | 153° |
| 2026-05-07 18:24 | 9.79871 | 125.03176 | 36843 ft | 461 kts | 153° |
| 2026-05-07 18:24 | 9.74185 | 125.06242 | 36841 ft | 461 kts | 153° |
| 2026-05-07 18:25 | 9.68543 | 125.09283 | 36844 ft | 462 kts | 154° |
| 2026-05-07 18:25 | 9.63804 | 125.11836 | 36836 ft | 462 kts | 153° |
| 2026-05-07 18:26 | 9.58116 | 125.14891 | 36844 ft | 461 kts | 154° |
| 2026-05-07 18:26 | 9.52453 | 125.17908 | 36839 ft | 462 kts | 153° |
| 2026-05-07 18:27 | 9.46772 | 125.20937 | 36834 ft | 461 kts | 154° |
| 2026-05-07 18:27 | 9.41097 | 125.23959 | 36834 ft | 461 kts | 154° |
| 2026-05-07 18:28 | 9.35404 | 125.26991 | 36838 ft | 460 kts | 153° |
| 2026-05-07 18:28 | 9.29764 | 125.29994 | 36839 ft | 460 kts | 153° |
| 2026-05-07 18:29 | 9.24111 | 125.33004 | 36845 ft | 459 kts | 153° |
| 2026-05-07 18:29 | 9.18435 | 125.36024 | 36846 ft | 458 kts | 153° |
| 2026-05-07 18:30 | 9.12820 | 125.39012 | 36840 ft | 457 kts | 154° |
| 2026-05-07 18:30 | 9.07212 | 125.41994 | 36834 ft | 456 kts | 154° |
| 2026-05-07 18:31 | 9.01580 | 125.44988 | 36829 ft | 456 kts | 154° |
| 2026-05-07 18:31 | 8.95795 | 125.47534 | 36836 ft | 454 kts | 164° |
| 2026-05-07 18:32 | 8.89626 | 125.48908 | 36863 ft | 453 kts | 175° |
| 2026-05-07 18:32 | 8.83369 | 125.49496 | 36861 ft | 453 kts | 176° |
| 2026-05-07 18:33 | 8.77079 | 125.50097 | 36862 ft | 453 kts | 176° |
| 2026-05-07 18:33 | 8.70814 | 125.50692 | 36807 ft | 454 kts | 175° |
| 2026-05-07 18:33 | 8.67665 | 125.50992 | 36572 ft | 453 kts | 175° |
| 2026-05-07 18:34 | 8.64517 | 125.51291 | 36330 ft | 453 kts | 175° |
| 2026-05-07 18:34 | 8.61403 | 125.51586 | 36092 ft | 455 kts | 175° |
| 2026-05-07 18:34 | 8.58242 | 125.51886 | 35853 ft | 457 kts | 175° |
| 2026-05-07 18:34 | 8.55067 | 125.52187 | 35617 ft | 458 kts | 175° |
| 2026-05-07 18:35 | 8.51872 | 125.52490 | 35381 ft | 458 kts | 175° |
| 2026-05-07 18:35 | 8.48686 | 125.52792 | 35150 ft | 459 kts | 175° |
| 2026-05-07 18:35 | 8.45526 | 125.53091 | 34926 ft | 460 kts | 175° |
| 2026-05-07 18:35 | 8.42323 | 125.53395 | 34705 ft | 461 kts | 175° |
| 2026-05-07 18:36 | 8.39150 | 125.53695 | 34475 ft | 461 kts | 175° |
| 2026-05-07 18:36 | 8.35944 | 125.53999 | 34232 ft | 462 kts | 175° |
| 2026-05-07 18:36 | 8.32723 | 125.54304 | 33526 ft | 464 kts | 175° |
| 2026-05-07 18:36 | 8.29488 | 125.54610 | 32239 ft | 470 kts | 175° |
| 2026-05-07 18:37 | 8.26235 | 125.54915 | 31180 ft | 478 kts | 174° |
| 2026-05-07 18:37 | 8.22900 | 125.55229 | 30328 ft | 480 kts | 174° |
| 2026-05-07 18:37 | 8.19585 | 125.55541 | 29468 ft | 479 kts | 174° |
| 2026-05-07 18:37 | 8.16300 | 125.55851 | 28722 ft | 475 kts | 173° |
| 2026-05-07 18:38 | 8.13002 | 125.56163 | 27930 ft | 473 kts | 173° |
| 2026-05-07 18:38 | 8.09759 | 125.56470 | 27165 ft | 470 kts | 173° |
| 2026-05-07 18:38 | 8.06506 | 125.56778 | 26506 ft | 465 kts | 173° |
| 2026-05-07 18:38 | 8.03290 | 125.57082 | 25851 ft | 461 kts | 173° |
| 2026-05-07 18:39 | 8.00111 | 125.57357 | 25231 ft | 456 kts | 176° |
| 2026-05-07 18:39 | 7.96987 | 125.57304 | 24382 ft | 451 kts | 184° |
| 2026-05-07 18:39 | 7.93894 | 125.56810 | 23463 ft | 449 kts | 192° |
| 2026-05-07 18:39 | 7.90897 | 125.55951 | 22618 ft | 440 kts | 195° |
| 2026-05-07 18:40 | 7.87990 | 125.55082 | 21845 ft | 430 kts | 194° |
| 2026-05-07 18:40 | 7.85181 | 125.54255 | 21082 ft | 422 kts | 194° |
| 2026-05-07 18:40 | 7.82376 | 125.53434 | 20298 ft | 415 kts | 194° |
| 2026-05-07 18:40 | 7.79621 | 125.52627 | 19523 ft | 408 kts | 194° |
| 2026-05-07 18:41 | 7.76917 | 125.51835 | 18760 ft | 403 kts | 194° |
| 2026-05-07 18:41 | 7.74229 | 125.51047 | 17968 ft | 398 kts | 194° |
| 2026-05-07 18:41 | 7.71621 | 125.50281 | 17273 ft | 390 kts | 194° |
| 2026-05-07 18:41 | 7.69031 | 125.49521 | 16328 ft | 388 kts | 194° |
| 2026-05-07 18:42 | 7.66398 | 125.48751 | 15069 ft | 397 kts | 194° |
| 2026-05-07 18:42 | 7.63742 | 125.47976 | 14137 ft | 396 kts | 194° |
| 2026-05-07 18:42 | 7.61106 | 125.47208 | 13287 ft | 391 kts | 194° |
| 2026-05-07 18:42 | 7.58538 | 125.46460 | 12447 ft | 385 kts | 194° |
| 2026-05-07 18:43 | 7.55977 | 125.45715 | 11614 ft | 380 kts | 193° |
| 2026-05-07 18:43 | 7.53444 | 125.44978 | 10842 ft | 374 kts | 193° |
| 2026-05-07 18:43 | 7.50990 | 125.44265 | 10317 ft | 365 kts | 193° |
| 2026-05-07 18:43 | 7.48577 | 125.43563 | 10164 ft | 351 kts | 193° |
| 2026-05-07 18:44 | 7.46312 | 125.42902 | 10003 ft | 333 kts | 193° |
| 2026-05-07 18:44 | 7.44149 | 125.42268 | 9832 ft | 313 kts | 193° |
| 2026-05-07 18:44 | 7.42086 | 125.41662 | 9404 ft | 304 kts | 193° |
| 2026-05-07 18:44 | 7.40113 | 125.41086 | 9100 ft | 292 kts | 193° |
| 2026-05-07 18:45 | 7.38137 | 125.40516 | 8978 ft | 299 kts | 192° |
| 2026-05-07 18:45 | 7.36111 | 125.40331 | 8867 ft | 286 kts | 168° |
| 2026-05-07 18:45 | 7.34264 | 125.40973 | 8767 ft | 286 kts | 145° |
| 2026-05-07 18:45 | 7.32839 | 125.42342 | 8690 ft | 281 kts | 121° |
| 2026-05-07 18:46 | 7.32132 | 125.44126 | 8562 ft | 275 kts | 98° |
| 2026-05-07 18:46 | 7.32095 | 125.46065 | 8306 ft | 280 kts | 88° |
| 2026-05-07 18:46 | 7.32175 | 125.48031 | 7880 ft | 281 kts | 88° |
| 2026-05-07 18:46 | 7.32256 | 125.49975 | 7462 ft | 276 kts | 88° |
| 2026-05-07 18:47 | 7.32331 | 125.51892 | 7048 ft | 270 kts | 88° |
| 2026-05-07 18:47 | 7.32401 | 125.53758 | 6637 ft | 264 kts | 88° |
| 2026-05-07 18:47 | 7.32467 | 125.55584 | 6226 ft | 258 kts | 88° |
| 2026-05-07 18:47 | 7.32527 | 125.57343 | 5826 ft | 252 kts | 88° |
| 2026-05-07 18:48 | 7.32586 | 125.59085 | 5442 ft | 246 kts | 88° |
| 2026-05-07 18:48 | 7.32648 | 125.60892 | 5044 ft | 276 kts | 88° |
| 2026-05-07 18:48 | 7.32717 | 125.62899 | 4806 ft | 288 kts | 88° |
| 2026-05-07 18:48 | 7.32785 | 125.64884 | 4728 ft | 279 kts | 88° |
| 2026-05-07 18:49 | 7.32851 | 125.66807 | 4478 ft | 268 kts | 87° |
| 2026-05-07 18:49 | 7.32913 | 125.68625 | 4338 ft | 252 kts | 87° |
| 2026-05-07 18:49 | 7.32971 | 125.70331 | 4199 ft | 235 kts | 87° |
| 2026-05-07 18:49 | 7.33026 | 125.71940 | 3971 ft | 225 kts | 87° |
| 2026-05-07 18:50 | 7.32784 | 125.73443 | 3762 ft | 213 kts | 117° |
| 2026-05-07 18:50 | 7.31866 | 125.74497 | 3688 ft | 193 kts | 146° |
| 2026-05-07 18:50 | 7.30661 | 125.74942 | 3572 ft | 178 kts | 174° |
| 2026-05-07 18:50 | 7.29489 | 125.74992 | 3500 ft | 158 kts | 177° |
| 2026-05-07 18:51 | 7.28440 | 125.75049 | 3382 ft | 145 kts | 176° |
| 2026-05-07 18:51 | 7.27456 | 125.75111 | 3188 ft | 142 kts | 175° |
| 2026-05-07 18:51 | 7.26470 | 125.75172 | 2950 ft | 142 kts | 176° |
| 2026-05-07 18:51 | 7.25470 | 125.75234 | 2682 ft | 144 kts | 176° |
| 2026-05-07 18:52 | 7.24468 | 125.75293 | 2449 ft | 144 kts | 176° |
| 2026-05-07 18:52 | 7.23479 | 125.75350 | 2256 ft | 143 kts | 176° |
| 2026-05-07 18:52 | 7.22488 | 125.75397 | 2025 ft | 143 kts | 183° |
| 2026-05-07 18:52 | 7.21572 | 125.75061 | 1930 ft | 136 kts | 223° |
| 2026-05-07 18:53 | 7.20928 | 125.74326 | 2060 ft | 145 kts | 234° |
| 2026-05-07 18:53 | 7.20279 | 125.73541 | 2025 ft | 143 kts | 232° |
| 2026-05-07 18:53 | 7.19641 | 125.72798 | 1829 ft | 139 kts | 232° |
| 2026-05-07 18:53 | 7.19013 | 125.72073 | 1557 ft | 138 kts | 232° |
| 2026-05-07 18:54 | 7.18386 | 125.71350 | 1271 ft | 137 kts | 231° |
| 2026-05-07 18:54 | 7.17762 | 125.70624 | 988 ft | 136 kts | 231° |
| 2026-05-07 18:54 | 7.17147 | 125.69937 | 811 ft | 128 kts | 230° |
| 2026-05-07 18:54 | 7.16530 | 125.69242 | 687 ft | 135 kts | 230° |
| 2026-05-07 18:55 | 7.15907 | 125.68539 | 634 ft | 134 kts | 230° |
| 2026-05-07 18:55 | 7.15297 | 125.67827 | 577 ft | 133 kts | 231° |
| 2026-05-07 18:55 | 7.14709 | 125.67098 | 521 ft | 134 kts | 232° |
| 2026-05-07 18:55 | 7.14106 | 125.66375 | 337 ft | 134 kts | 231° |
| 2026-05-07 18:56 | 7.13508 | 125.65687 | 133 ft | 127 kts | 230° |
| 2026-05-07 18:56 | 7.12955 | 125.65045 | 84 ft | 105 kts | 230° |
| 2026-05-07 18:56 | 7.12640 | 125.64681 | 72 ft | 9 kts | 229° |
| 2026-05-07 18:56 | 7.12624 | 125.64663 | 74 ft | 9 kts | 229° |
| 2026-05-07 18:57 | 7.12575 | 125.64585 | 72 ft | 17 kts | 269° |
| 2026-05-07 18:57 | 7.12658 | 125.64480 | 77 ft | 23 kts | 322° |
| 2026-05-07 18:57 | 7.12753 | 125.64468 | 77 ft | 17 kts | 50° |
| 2026-05-07 18:57 | 7.12832 | 125.64560 | 74 ft | 15 kts | 46° |
| 2026-05-07 18:58 | 7.12893 | 125.64595 | 69 ft | 9 kts | 355° |
| 2026-05-07 18:58 | 7.12928 | 125.64571 | 74 ft | 1 kts | 320° |
| 2026-05-07 18:58 | 7.12936 | 125.64562 | 72 ft | 4 kts | 312° |
| 2026-05-07 18:58 | 7.12950 | 125.64549 | 72 ft | 0 kts | 319° |